Torm Republican — OYNE2 — position and weather

sailwx.info

Track history (hours):
 
Tides and Currents Weather Stations Pressure Air Temp Water Temp Dewpoint Dewpoint Depression Visibility Wind Speed Wind Dir Waves Ship Positions

Torm Republican

Last reported at 2017-Mar-10 15:05 UTC. Time now 2017-Mar-30 01:07 UTC.
Position S 25°45' W 048°14'.
Warning: this ship's position is 19 days out of date.

Length 183 m; draft 11.5 m.

Type: Tanker. MMSI: 220560000.

Date/timePositionNaut miles runAvg speedWind from/ knotsBaromVisibWave heightAir tempDewpointWater temp
2017-Mar-10 15:05S 25°45' W 048°14'1 1.5
2017-Mar-10 14:30S 25°44' W 048°13'  
2017-Mar-05 09:34S 25°19' W 046°42'1311.7
2017-Mar-05 08:26S 25°15' W 046°28'1111.9
2017-Mar-05 07:29S 25°10' W 046°17'2412.2
2017-Mar-05 05:28S 25°02' W 045°51'9313.2
2017-Mar-04 22:27S 24°32' W 044°15'1414.4
2017-Mar-04 21:28S 24°27' W 044°00'1414.1
2017-Mar-04 20:27S 24°23' W 043°45'1413.7
2017-Mar-04 19:25S 24°19' W 043°30'8712.4
2017-Mar-04 12:26S 23°53' W 041°59'1112.4
2017-Mar-04 11:33S 23°49' W 041°48'1312.7
2017-Mar-04 10:31S 23°45' W 041°34'3113.3
2017-Mar-04 08:13S 23°36' W 041°02'913.2
2017-Mar-04 07:33S 23°31' W 040°54'1313.0
2017-Mar-04 06:34S 23°24' W 040°43'  
Track history (hours):
 
Tides and Currents Weather Stations Pressure Air Temp Water Temp Dewpoint Dewpoint Depression Visibility Wind Speed Wind Dir Waves Ship Positions

Torm Republican

Last reported at 2017-Mar-10 15:05 UTC. Time now 2017-Mar-30 01:07 UTC.
Position S 25°45' W 048°14'.
Warning: this ship's position is 19 days out of date.

Length 183 m; draft 11.5 m.

Type: Tanker. MMSI: 220560000.

Date/timePositionNaut miles runAvg speedWind from/ knotsBaromVisibWave heightAir tempDewpointWater temp
2017-Mar-10 15:05S 25°45' W 048°14'1 1.5
2017-Mar-10 14:30S 25°44' W 048°13'  
2017-Mar-05 09:34S 25°19' W 046°42'1311.7
2017-Mar-05 08:26S 25°15' W 046°28'1111.9
2017-Mar-05 07:29S 25°10' W 046°17'2412.2
2017-Mar-05 05:28S 25°02' W 045°51'9313.2
2017-Mar-04 22:27S 24°32' W 044°15'1414.4
2017-Mar-04 21:28S 24°27' W 044°00'1414.1
2017-Mar-04 20:27S 24°23' W 043°45'1413.7
2017-Mar-04 19:25S 24°19' W 043°30'8712.4
2017-Mar-04 12:26S 23°53' W 041°59'1112.4
2017-Mar-04 11:33S 23°49' W 041°48'1312.7
2017-Mar-04 10:31S 23°45' W 041°34'3113.3
2017-Mar-04 08:13S 23°36' W 041°02'913.2
2017-Mar-04 07:33S 23°31' W 040°54'1313.0
2017-Mar-04 06:34S 23°24' W 040°43'  

Dump ship's entire track history